Time;durP1;ratioP1;P1;durP2;ratioP2;P2;SDS_P1;SDS_P2;PMS_P1;PMS_P2;Temp;Humidity;BMP_temperature;BMP_pressure;BME280_temperature;BME280_humidity;BME280_pressure;Samples;Min_cycle;Max_cycle;Signal;HPM_P1;HPM_P2
2022/11/20 00:01:23;;;;;;;35.17;21.77;;;1.90;98.80;;;;;;5114579;28;20489;-74
2022/11/20 00:03:50;;;;;;;34.08;21.00;;;1.90;99.00;;;;;;5115354;28;20024;-74
2022/11/20 00:06:18;;;;;;;34.00;21.40;;;1.90;99.00;;;;;;5115700;28;20111;-74
2022/11/20 00:08:45;;;;;;;34.55;20.98;;;1.90;99.00;;;;;;5115029;28;20035;-74
2022/11/20 00:11:19;;;;;;;36.92;21.27;;;1.90;99.00;;;;;;5115499;27;20427;-73
2022/11/20 00:13:47;;;;;;;35.53;21.35;;;1.90;99.30;;;;;;5115341;27;20028;-73
2022/11/20 00:16:15;;;;;;;35.40;20.42;;;1.90;99.30;;;;;;5115336;28;20028;-74
2022/11/20 00:18:42;;;;;;;35.42;21.73;;;1.90;99.30;;;;;;5115542;27;20500;-75
2022/11/20 00:21:14;;;;;;;36.65;21.73;;;1.90;99.20;;;;;;5115219;28;20085;-74
2022/11/20 00:23:41;;;;;;;36.63;20.30;;;1.90;98.90;;;;;;5115606;28;20038;-72
2022/11/20 00:26:08;;;;;;;34.72;20.60;;;1.90;98.60;;;;;;5113801;28;20396;-73
2022/11/20 00:28:34;;;;;;;34.85;20.15;;;1.90;98.90;;;;;;5114780;28;20028;-73
2022/11/20 00:31:02;;;;;;;34.78;20.58;;;1.90;98.90;;;;;;5114886;28;20020;-72
2022/11/20 00:33:28;;;;;;;38.63;19.92;;;1.90;98.70;;;;;;5114829;27;20031;-73
2022/11/20 00:35:53;;;;;;;33.03;20.65;;;1.90;98.70;;;;;;5116960;27;20553;-73
2022/11/20 00:38:19;;;;;;;36.70;21.63;;;1.90;98.70;;;;;;5124526;27;20468;-73
2022/11/20 00:40:44;;;;;;;40.83;21.15;;;1.80;98.60;;;;;;5135683;27;20027;-74
2022/11/20 00:43:10;;;;;;;36.58;20.98;;;1.80;98.70;;;;;;5135172;27;20023;-73
2022/11/20 00:45:36;;;;;;;37.13;21.05;;;1.90;98.90;;;;;;5135676;27;20455;-72
2022/11/20 00:48:01;;;;;;;35.80;20.05;;;1.90;99.00;;;;;;5128076;27;20024;-73
2022/11/20 00:50:27;;;;;;;36.72;20.60;;;1.90;98.90;;;;;;5114870;28;20024;-74
2022/11/20 00:52:52;;;;;;;36.63;21.25;;;1.90;99.00;;;;;;5114474;28;20034;-74
2022/11/20 00:55:18;;;;;;;36.15;21.55;;;1.90;98.70;;;;;;5114593;28;20054;-73
2022/11/20 00:57:44;;;;;;;32.88;19.90;;;1.90;99.00;;;;;;5116099;27;20028;-73
2022/11/20 01:00:09;;;;;;;35.13;20.73;;;1.90;99.00;;;;;;5133629;27;20031;-73
2022/11/20 01:02:35;;;;;;;37.58;22.27;;;1.90;99.00;;;;;;5135016;27;20168;-73
2022/11/20 01:05:01;;;;;;;37.35;20.73;;;1.90;98.70;;;;;;5130016;27;20114;-73
2022/11/20 01:07:26;;;;;;;35.25;19.45;;;1.90;98.80;;;;;;5114626;28;20024;-74
2022/11/20 01:09:52;;;;;;;35.95;20.45;;;1.90;98.90;;;;;;5114143;28;20067;-73
2022/11/20 01:12:17;;;;;;;35.47;20.30;;;1.90;99.10;;;;;;5112950;28;20453;-73
2022/11/20 01:14:43;;;;;;;34.40;19.70;;;2.00;99.30;;;;;;5114496;28;20023;-73
2022/11/20 01:17:09;;;;;;;33.90;19.98;;;2.00;99.20;;;;;;5113994;28;20028;-73
2022/11/20 01:19:34;;;;;;;37.95;20.50;;;2.00;99.10;;;;;;5114293;28;20024;-73
2022/11/20 01:22:00;;;;;;;36.90;21.73;;;2.10;99.30;;;;;;5113552;28;20477;-73
2022/11/20 01:24:25;;;;;;;37.53;20.67;;;2.10;99.30;;;;;;5113873;28;20020;-73
2022/11/20 01:26:51;;;;;;;35.78;21.35;;;2.10;99.50;;;;;;5114195;28;20027;-73
2022/11/20 01:29:23;;;;;;;36.17;20.67;;;2.10;99.40;;;;;;5113979;28;20046;-72
2022/11/20 01:31:49;;;;;;;35.08;21.17;;;2.00;99.40;;;;;;5114147;28;20416;-73
2022/11/20 01:34:17;;;;;;;35.40;21.13;;;2.00;99.90;;;;;;5113826;28;20047;-73
2022/11/20 01:36:43;;;;;;;36.92;20.35;;;2.00;99.70;;;;;;5113941;28;20028;-73
2022/11/20 01:39:24;;;;;;;36.03;20.60;;;2.00;99.90;;;;;;5115393;28;20023;-74
2022/11/20 01:44:51;;;;;;;35.20;20.30;;;1.90;99.90;;;;;;5116290;28;20022;-73
2022/11/20 01:47:34;;;;;;;35.00;19.98;;;1.90;99.90;;;;;;5116083;28;20023;-73
2022/11/20 01:50:11;;;;;;;37.05;22.00;;;1.90;99.90;;;;;;5115835;28;20053;-73
2022/11/20 01:52:42;;;;;;;39.75;22.30;;;1.90;99.90;;;;;;5117635;28;20122;-72
2022/11/20 01:55:37;;;;;;;;;;;1.90;99.90;;;;;;5114833;28;20031;-72
2022/11/20 01:58:04;;;;;;;35.50;20.98;;;1.90;99.90;;;;;;5104387;28;19957;-73
2022/11/20 02:00:30;;;;;;;39.22;21.38;;;1.90;99.90;;;;;;5113221;28;20035;-72
2022/11/20 02:03:00;;;;;;;36.33;20.80;;;1.90;99.90;;;;;;5113432;28;20102;-73
2022/11/20 02:05:31;;;;;;;38.05;21.30;;;1.90;99.90;;;;;;5113371;28;20391;-73
2022/11/20 02:07:58;;;;;;;35.63;21.40;;;1.90;99.90;;;;;;5113049;28;20456;-72
2022/11/20 02:10:25;;;;;;;36.47;22.25;;;1.90;99.90;;;;;;5113656;28;20031;-74
2022/11/20 02:15:35;;;;;;;34.92;20.58;;;1.90;99.90;;;;;;5113806;28;20096;-74
2022/11/20 02:18:01;;;;;;;36.88;21.60;;;1.90;99.90;;;;;;5113241;28;20039;-74
2022/11/20 02:20:27;;;;;;;37.78;21.23;;;1.90;99.90;;;;;;5113441;28;20442;-73
2022/11/20 02:22:56;;;;;;;38.20;21.27;;;1.90;99.90;;;;;;5113370;28;20019;-73
2022/11/20 02:25:23;;;;;;;38.72;21.55;;;1.80;99.90;;;;;;5113427;28;20040;-73
2022/11/20 02:27:49;;;;;;;36.20;21.73;;;1.80;99.90;;;;;;5113266;28;20111;-74
2022/11/20 02:30:15;;;;;;;37.08;22.48;;;1.80;99.90;;;;;;5111602;28;20375;-74
2022/11/20 02:32:40;;;;;;;37.22;21.17;;;1.90;99.90;;;;;;5112927;28;20027;-74
2022/11/20 02:35:29;;;;;;;34.90;21.15;;;1.90;99.90;;;;;;5112677;28;20064;-73
2022/11/20 02:37:57;;;;;;;36.42;20.73;;;1.90;99.90;;;;;;5112749;28;20031;-73
2022/11/20 02:40:23;;;;;;;37.28;21.05;;;1.90;99.90;;;;;;5113028;28;20532;-72
2022/11/20 02:42:53;;;;;;;38.53;22.13;;;2.00;99.90;;;;;;5113019;28;20019;-73
2022/11/20 02:45:19;;;;;;;47.20;22.73;;;1.90;99.90;;;;;;5112392;28;20039;-74
2022/11/20 02:47:45;;;;;;;38.13;22.48;;;2.00;99.90;;;;;;5112625;28;20372;-72
2022/11/20 02:50:10;;;;;;;34.40;21.00;;;2.00;99.90;;;;;;5112357;28;20036;-74
2022/11/20 02:52:36;;;;;;;36.72;21.23;;;1.90;99.90;;;;;;5115840;28;20046;-74
2022/11/20 02:55:02;;;;;;;34.03;20.02;;;2.00;99.90;;;;;;5115592;28;20030;-74
2022/11/20 02:57:28;;;;;;;37.03;21.83;;;2.00;99.90;;;;;;5117480;28;20024;-73
2022/11/20 02:59:53;;;;;;;36.28;21.45;;;2.00;99.90;;;;;;5117439;28;20452;-73
2022/11/20 03:02:19;;;;;;;36.28;21.52;;;2.00;99.90;;;;;;5116683;28;20026;-73
2022/11/20 03:04:44;;;;;;;35.40;21.77;;;2.00;99.90;;;;;;5117060;28;20413;-73
2022/11/20 03:07:11;;;;;;;36.00;21.15;;;2.00;99.90;;;;;;5116878;28;20108;-74
2022/11/20 03:09:36;;;;;;;38.38;21.70;;;2.00;99.90;;;;;;5116876;28;20352;-73
2022/11/20 03:12:02;;;;;;;36.28;20.90;;;2.00;99.90;;;;;;5114942;28;20035;-74
2022/11/20 03:14:28;;;;;;;35.45;20.95;;;2.00;99.90;;;;;;5116338;28;20042;-73
2022/11/20 03:16:53;;;;;;;35.90;21.27;;;2.00;99.90;;;;;;5115939;28;20054;-73
2022/11/20 03:19:19;;;;;;;35.60;21.45;;;2.10;99.90;;;;;;5116378;28;20536;-73
2022/11/20 03:21:45;;;;;;;38.83;22.63;;;2.00;99.90;;;;;;5116675;28;20130;-73
2022/11/20 03:24:10;;;;;;;38.45;21.85;;;2.00;99.90;;;;;;5116351;28;20104;-73
2022/11/20 03:26:36;;;;;;;39.42;22.98;;;2.00;99.90;;;;;;5116665;28;20057;-72
2022/11/20 03:29:04;;;;;;;38.45;21.73;;;2.00;99.90;;;;;;5116213;28;20371;-75
2022/11/20 03:31:33;;;;;;;36.35;22.60;;;2.10;99.90;;;;;;5115253;28;20031;-73
2022/11/20 03:33:59;;;;;;;36.90;21.60;;;2.10;99.90;;;;;;5115953;28;20031;-74
2022/11/20 03:36:26;;;;;;;34.20;20.13;;;2.10;99.90;;;;;;5116078;28;20372;-74
2022/11/20 03:38:53;;;;;;;37.75;22.20;;;2.10;99.90;;;;;;5116388;28;20030;-73
2022/11/20 03:41:21;;;;;;;37.80;21.20;;;2.10;99.90;;;;;;5115722;28;20464;-73
2022/11/20 03:43:54;;;;;;;35.65;21.05;;;2.10;99.90;;;;;;5116377;28;20030;-74
2022/11/20 03:46:21;;;;;;;41.55;23.10;;;2.10;99.90;;;;;;5115806;28;20038;-72
2022/11/20 03:48:47;;;;;;;40.45;22.73;;;2.10;99.90;;;;;;5115774;28;20027;-73
2022/11/20 03:51:27;;;;;;;39.55;22.83;;;2.00;99.90;;;;;;5115537;27;20111;-73
2022/11/20 03:53:55;;;;;;;39.87;21.60;;;2.00;99.90;;;;;;5115929;28;20089;-72
2022/11/20 03:56:26;;;;;;;40.90;22.10;;;2.00;99.90;;;;;;5115397;28;20544;-74
2022/11/20 03:58:51;;;;;;;34.47;20.05;;;2.00;99.90;;;;;;5115747;28;20039;-72
2022/11/20 04:01:20;;;;;;;37.10;20.25;;;2.00;99.90;;;;;;5115629;28;20028;-73
2022/11/20 04:03:46;;;;;;;37.83;21.00;;;2.00;99.90;;;;;;5114725;28;20026;-73
2022/11/20 04:06:21;;;;;;;36.17;20.30;;;2.00;99.90;;;;;;5115153;28;20085;-74
2022/11/20 04:08:47;;;;;;;36.35;20.25;;;2.00;99.90;;;;;;5115554;28;20023;-73
2022/11/20 04:11:15;;;;;;;36.20;20.67;;;2.00;99.90;;;;;;5115101;28;20028;-73
2022/11/20 04:13:42;;;;;;;38.60;21.80;;;2.00;99.90;;;;;;5116009;28;20034;-73
2022/11/20 04:16:09;;;;;;;36.08;20.85;;;2.10;99.90;;;;;;5114100;28;20039;-73
2022/11/20 04:18:35;;;;;;;41.65;22.50;;;2.10;99.90;;;;;;5115110;28;20027;-73
2022/11/20 04:21:02;;;;;;;35.83;21.63;;;2.10;99.90;;;;;;5115608;28;20039;-73
2022/11/20 04:23:28;;;;;;;36.45;21.85;;;2.10;99.90;;;;;;5115031;28;20376;-72
2022/11/20 04:25:54;;;;;;;41.42;22.73;;;2.10;99.90;;;;;;5115489;28;20036;-74
2022/11/20 04:28:19;;;;;;;37.50;21.02;;;2.10;99.90;;;;;;5115174;28;20024;-73
2022/11/20 04:30:45;;;;;;;38.05;21.58;;;2.10;99.90;;;;;;5115373;28;20019;-72
2022/11/20 04:33:11;;;;;;;36.05;21.10;;;2.10;99.90;;;;;;5115290;28;20031;-73
2022/11/20 04:35:37;;;;;;;34.90;21.48;;;2.10;99.90;;;;;;5115447;28;20499;-73
2022/11/20 04:38:03;;;;;;;35.33;21.23;;;2.10;99.90;;;;;;5115179;28;20474;-73
2022/11/20 04:40:30;;;;;;;38.40;21.85;;;2.10;99.90;;;;;;5114757;28;20051;-74
2022/11/20 04:42:56;;;;;;;42.28;24.00;;;2.10;99.90;;;;;;5115101;28;20016;-74
2022/11/20 04:45:22;;;;;;;37.92;21.77;;;2.10;99.90;;;;;;5114572;27;20192;-74
2022/11/20 04:47:48;;;;;;;39.20;21.73;;;2.10;99.90;;;;;;5114755;28;20481;-75
2022/11/20 04:50:14;;;;;;;38.75;22.27;;;2.00;99.90;;;;;;5131325;27;20023;-74
2022/11/20 04:52:39;;;;;;;39.50;22.45;;;2.00;99.90;;;;;;5135882;27;20032;-74
2022/11/20 04:55:05;;;;;;;33.85;20.95;;;2.10;99.90;;;;;;5135295;27;20031;-74
2022/11/20 04:57:31;;;;;;;40.33;23.08;;;2.10;99.90;;;;;;5134915;27;20428;-73
2022/11/20 04:59:57;;;;;;;40.45;22.52;;;2.10;99.90;;;;;;5135188;27;20019;-74
2022/11/20 05:02:23;;;;;;;38.50;21.63;;;2.10;99.90;;;;;;5135184;27;20031;-74
2022/11/20 05:04:48;;;;;;;41.45;23.38;;;2.00;99.90;;;;;;5135170;27;20023;-74
2022/11/20 05:07:14;;;;;;;40.60;22.27;;;2.00;99.90;;;;;;5134669;27;20027;-74
2022/11/20 05:09:40;;;;;;;37.45;21.63;;;2.10;99.90;;;;;;5135119;27;20356;-74
2022/11/20 05:12:08;;;;;;;39.95;22.65;;;2.10;99.90;;;;;;5134853;27;20048;-73
2022/11/20 05:14:34;;;;;;;38.80;21.45;;;2.10;99.90;;;;;;5134532;27;20371;-73
2022/11/20 05:17:00;;;;;;;42.92;22.90;;;2.00;99.90;;;;;;5135051;27;20024;-73
2022/11/20 05:19:25;;;;;;;33.50;20.38;;;2.00;99.90;;;;;;5116585;27;20023;-73
2022/11/20 05:21:51;;;;;;;35.85;20.27;;;2.00;99.90;;;;;;5114420;28;20039;-73
2022/11/20 05:24:16;;;;;;;37.63;18.70;;;2.00;99.90;;;;;;5113954;28;20064;-73
2022/11/20 05:26:42;;;;;;;32.35;17.30;;;2.00;99.90;;;;;;5114125;28;20465;-72
2022/11/20 05:29:11;;;;;;;31.92;18.27;;;2.00;99.90;;;;;;5114064;28;20024;-73
2022/11/20 05:31:39;;;;;;;34.58;18.90;;;2.00;99.90;;;;;;5114265;28;20076;-72
2022/11/20 05:34:05;;;;;;;32.40;19.48;;;2.00;99.90;;;;;;5113975;28;20456;-73
2022/11/20 05:36:31;;;;;;;34.95;19.92;;;2.00;99.90;;;;;;5113831;28;20233;-73
2022/11/20 05:38:57;;;;;;;39.70;21.13;;;2.10;99.90;;;;;;5114004;27;20519;-74
2022/11/20 05:41:22;;;;;;;36.65;22.45;;;2.10;99.90;;;;;;5113555;28;20028;-74
2022/11/20 05:43:49;;;;;;;39.28;22.88;;;2.10;99.90;;;;;;5113828;28;20084;-74
2022/11/20 05:46:17;;;;;;;39.58;22.73;;;2.10;99.90;;;;;;5113411;28;20042;-74
2022/11/20 05:48:45;;;;;;;37.67;22.05;;;2.10;99.90;;;;;;5113782;28;20060;-73
2022/11/20 05:51:13;;;;;;;40.97;23.20;;;2.10;99.90;;;;;;5113837;28;20035;-73
2022/11/20 05:53:39;;;;;;;40.15;22.33;;;2.10;99.90;;;;;;5113686;28;20023;-73
2022/11/20 05:56:06;;;;;;;40.58;23.45;;;2.10;99.90;;;;;;5113728;28;20033;-72
2022/11/20 05:58:32;;;;;;;37.58;22.88;;;2.10;99.90;;;;;;5112391;28;20033;-73
2022/11/20 06:01:20;;;;;;;42.00;22.48;;;2.20;99.90;;;;;;5113296;28;20031;-73
2022/11/20 06:03:47;;;;;;;40.58;23.42;;;2.20;99.90;;;;;;5113421;28;20031;-74
2022/11/20 06:06:14;;;;;;;41.47;22.75;;;2.20;99.90;;;;;;5113057;28;20145;-74
2022/11/20 06:08:40;;;;;;;39.78;23.88;;;2.20;99.90;;;;;;5113198;28;20379;-74
2022/11/20 06:11:08;;;;;;;41.38;22.77;;;2.10;99.90;;;;;;5113439;28;20098;-73
2022/11/20 06:13:34;;;;;;;37.95;22.83;;;2.10;99.90;;;;;;5112723;28;20528;-74
2022/11/20 06:15:59;;;;;;;37.95;22.95;;;2.10;99.90;;;;;;5113381;28;20027;-74
2022/11/20 06:18:28;;;;;;;39.05;22.63;;;2.10;99.90;;;;;;5113293;28;20120;-74
2022/11/20 06:21:07;;;;;;;35.80;22.58;;;2.10;99.90;;;;;;5113212;28;20031;-73
2022/11/20 06:23:34;;;;;;;38.65;22.38;;;2.10;99.90;;;;;;5112717;28;20023;-72
2022/11/20 06:26:08;;;;;;;41.35;23.88;;;2.10;99.90;;;;;;5112763;28;20038;-74
2022/11/20 06:28:34;;;;;;;37.80;22.05;;;2.00;99.90;;;;;;5111468;28;20145;-73
2022/11/20 06:31:00;;;;;;;38.63;22.92;;;2.00;99.90;;;;;;5113165;28;20030;-72
2022/11/20 06:33:26;;;;;;;39.35;23.17;;;2.10;99.90;;;;;;5111126;28;20098;-73
2022/11/20 06:35:52;;;;;;;40.13;23.42;;;2.00;99.90;;;;;;5113126;28;20061;-73
2022/11/20 06:38:17;;;;;;;40.83;23.40;;;2.10;99.90;;;;;;5112276;28;20024;-72
2022/11/20 06:40:43;;;;;;;41.70;23.80;;;2.00;99.90;;;;;;5113101;28;20459;-74
2022/11/20 06:43:12;;;;;;;39.33;23.33;;;2.00;99.90;;;;;;5111506;28;20027;-74
2022/11/20 06:45:37;;;;;;;43.50;24.65;;;2.10;99.90;;;;;;5112417;28;20064;-74
2022/11/20 06:48:04;;;;;;;39.15;22.75;;;2.00;99.90;;;;;;5112919;28;20024;-74
2022/11/20 06:50:29;;;;;;;41.25;24.67;;;2.00;99.90;;;;;;5112440;28;20080;-74
2022/11/20 06:52:55;;;;;;;42.70;24.55;;;2.00;99.90;;;;;;5112619;28;20031;-74
2022/11/20 06:55:20;;;;;;;40.03;23.98;;;2.00;99.90;;;;;;5112214;28;20031;-74
2022/11/20 06:57:46;;;;;;;46.40;23.42;;;1.90;99.90;;;;;;5112810;28;20028;-73
2022/11/20 07:00:12;;;;;;;40.58;23.77;;;2.00;99.90;;;;;;5112799;28;20356;-73
2022/11/20 07:02:38;;;;;;;45.35;24.90;;;1.90;99.90;;;;;;5111959;28;20019;-73
2022/11/20 07:05:04;;;;;;;41.67;24.17;;;1.90;99.90;;;;;;5112662;28;20431;-73
2022/11/20 07:07:29;;;;;;;38.20;23.10;;;1.90;99.90;;;;;;5112335;28;20030;-73
2022/11/20 07:09:55;;;;;;;40.97;24.15;;;1.90;99.90;;;;;;5112821;28;20380;-73
2022/11/20 07:12:21;;;;;;;43.28;24.63;;;2.00;99.90;;;;;;5111633;28;20081;-73
2022/11/20 07:14:46;;;;;;;40.80;24.55;;;1.90;99.90;;;;;;5112643;28;20028;-73
2022/11/20 07:17:12;;;;;;;40.65;23.38;;;1.90;99.90;;;;;;5112680;28;20080;-73
2022/11/20 07:19:38;;;;;;;43.40;24.55;;;1.90;99.90;;;;;;5112374;28;20035;-73
2022/11/20 07:22:04;;;;;;;41.90;23.58;;;1.90;99.90;;;;;;5112673;28;20030;-73
2022/11/20 07:24:30;;;;;;;41.83;24.60;;;1.90;99.90;;;;;;5112294;28;20460;-73
2022/11/20 07:26:55;;;;;;;44.17;24.88;;;1.80;99.90;;;;;;5112637;28;20046;-73
2022/11/20 07:29:21;;;;;;;43.28;24.13;;;1.80;99.90;;;;;;5112503;28;20031;-77
2022/11/20 07:31:46;;;;;;;44.15;25.52;;;1.70;99.90;;;;;;5112943;28;20058;-74
2022/11/20 07:34:12;;;;;;;41.30;23.30;;;1.70;99.90;;;;;;5112126;28;20052;-73
2022/11/20 07:36:38;;;;;;;42.47;24.92;;;1.70;99.90;;;;;;5112139;28;20489;-73
2022/11/20 07:39:04;;;;;;;44.00;24.38;;;1.70;99.90;;;;;;5115308;28;20028;-73
2022/11/20 07:41:29;;;;;;;47.75;25.90;;;1.70;99.90;;;;;;5115621;28;20377;-74
2022/11/20 07:43:55;;;;;;;42.15;24.02;;;1.70;99.90;;;;;;5116287;28;20023;-74
2022/11/20 07:46:21;;;;;;;43.10;24.77;;;1.70;99.90;;;;;;5116053;28;20031;-73
2022/11/20 07:48:46;;;;;;;43.67;25.10;;;1.70;99.90;;;;;;5115722;28;20026;-73
2022/11/20 07:51:13;;;;;;;43.35;25.15;;;1.70;99.90;;;;;;5115448;28;20042;-73
2022/11/20 07:53:38;;;;;;;40.70;23.95;;;1.70;99.90;;;;;;5115620;28;20036;-73
2022/11/20 07:56:04;;;;;;;43.17;24.67;;;1.70;99.90;;;;;;5116123;28;20081;-73
2022/11/20 07:58:32;;;;;;;43.75;24.20;;;1.70;99.90;;;;;;5115233;28;20465;-73
2022/11/20 08:01:03;;;;;;;44.33;25.90;;;1.70;99.90;;;;;;5115876;28;20028;-73
2022/11/20 08:03:28;;;;;;;43.70;24.80;;;1.80;99.90;;;;;;5115217;28;20031;-73
2022/11/20 08:05:54;;;;;;;43.15;25.70;;;1.80;99.90;;;;;;5115451;28;20032;-74
2022/11/20 08:08:21;;;;;;;41.45;25.15;;;1.80;99.90;;;;;;5115863;28;20039;-74
2022/11/20 08:10:46;;;;;;;44.97;25.10;;;1.80;99.90;;;;;;5115257;28;20028;-74
2022/11/20 08:15:56;;;;;;;48.78;25.48;;;1.90;99.90;;;;;;5115659;28;20039;-73
2022/11/20 08:18:22;;;;;;;44.15;25.52;;;1.90;99.90;;;;;;5115577;28;20020;-72
2022/11/20 08:20:48;;;;;;;43.83;25.38;;;1.90;99.90;;;;;;5115194;28;20065;-73
2022/11/20 08:23:14;;;;;;;45.38;25.27;;;1.90;99.90;;;;;;5115466;28;20030;-74
2022/11/20 08:25:39;;;;;;;45.08;25.08;;;1.90;99.90;;;;;;5114876;27;20035;-73
2022/11/20 08:28:08;;;;;;;47.22;25.80;;;1.90;99.90;;;;;;5115591;28;20020;-73
2022/11/20 08:30:35;;;;;;;43.50;24.25;;;2.00;99.90;;;;;;5115019;28;20020;-73
2022/11/20 08:33:08;;;;;;;41.88;25.30;;;2.00;99.90;;;;;;5115506;28;20024;-73
2022/11/20 08:35:35;;;;;;;44.30;26.60;;;2.10;99.90;;;;;;5114528;28;20054;-73
2022/11/20 08:38:02;;;;;;;45.72;26.00;;;2.10;99.90;;;;;;5113461;28;20033;-72
2022/11/20 08:40:28;;;;;;;44.05;25.77;;;2.10;99.90;;;;;;5114543;28;20024;-73
2022/11/20 08:42:54;;;;;;;45.13;26.35;;;2.20;99.90;;;;;;5113844;28;20486;-73
2022/11/20 08:45:19;;;;;;;46.03;26.52;;;2.20;99.90;;;;;;5115108;28;20039;-72
2022/11/20 08:47:45;;;;;;;43.78;25.40;;;2.30;99.90;;;;;;5114566;28;20035;-71
2022/11/20 08:50:12;;;;;;;42.58;24.38;;;2.30;99.90;;;;;;5114455;27;20070;-72
2022/11/20 08:52:38;;;;;;;43.75;24.85;;;2.30;99.90;;;;;;5114612;28;20026;-73
2022/11/20 08:55:05;;;;;;;44.88;25.70;;;2.40;99.90;;;;;;5114997;28;20038;-72
2022/11/20 08:57:34;;;;;;;50.50;27.27;;;2.40;99.90;;;;;;5114191;28;20475;-72
2022/11/20 09:00:00;;;;;;;45.88;25.92;;;2.40;99.90;;;;;;5111112;28;20020;-72
2022/11/20 09:02:26;;;;;;;45.97;26.23;;;2.40;99.90;;;;;;5113039;28;20404;-72
2022/11/20 09:04:53;;;;;;;46.58;27.02;;;2.40;99.90;;;;;;5112465;28;20024;-72
2022/11/20 09:07:19;;;;;;;46.60;25.73;;;2.50;99.90;;;;;;5113169;28;20522;-72
2022/11/20 09:09:44;;;;;;;46.92;25.73;;;2.50;99.90;;;;;;5112857;28;20023;-72
2022/11/20 09:12:10;;;;;;;48.75;26.63;;;2.50;99.90;;;;;;5112576;28;20028;-72
2022/11/20 09:14:35;;;;;;;48.20;27.77;;;2.50;99.90;;;;;;5112681;28;20062;-72
2022/11/20 09:17:01;;;;;;;52.00;29.15;;;2.60;99.90;;;;;;5113038;28;20456;-72
2022/11/20 09:19:27;;;;;;;51.85;27.58;;;2.60;99.90;;;;;;5113218;28;20020;-72
2022/11/20 09:21:52;;;;;;;47.97;27.25;;;2.60;99.90;;;;;;5112600;28;20076;-73
2022/11/20 09:24:18;;;;;;;48.58;28.13;;;2.70;99.90;;;;;;5113008;28;20020;-73
2022/11/20 09:26:44;;;;;;;49.40;27.88;;;2.70;99.90;;;;;;5113347;28;20036;-73
2022/11/20 09:29:10;;;;;;;46.97;27.17;;;2.80;99.90;;;;;;5114207;28;20384;-73
2022/11/20 09:31:36;;;;;;;49.35;28.20;;;2.80;99.90;;;;;;5113663;28;20030;-72
2022/11/20 09:34:02;;;;;;;50.80;28.40;;;2.70;99.90;;;;;;5112491;28;20031;-72
2022/11/20 09:36:27;;;;;;;52.28;27.35;;;2.80;99.90;;;;;;5113485;28;20034;-72
2022/11/20 09:38:53;;;;;;;48.17;28.25;;;2.80;99.90;;;;;;5113890;28;20024;-73
2022/11/20 09:41:28;;;;;;;45.95;26.88;;;2.80;99.90;;;;;;5114272;27;20036;-72
2022/11/20 09:44:28;;;;;;;48.95;27.23;;;2.80;99.90;;;;;;5113135;28;20023;-73
2022/11/20 09:47:16;;;;;;;47.90;27.33;;;2.80;99.90;;;;;;5113393;28;20383;-73
2022/11/20 09:49:53;;;;;;;47.78;26.85;;;2.80;99.90;;;;;;5113291;28;20027;-73
2022/11/20 09:52:43;;;;;;;45.13;27.13;;;2.70;99.90;;;;;;5113985;28;20023;-72
2022/11/20 09:55:11;;;;;;;47.00;26.92;;;2.70;99.90;;;;;;5111978;28;20019;-72
2022/11/20 09:57:42;;;;;;;46.80;26.95;;;2.70;99.90;;;;;;5113400;28;20051;-72
2022/11/20 10:00:12;;;;;;;50.23;27.87;;;2.80;99.90;;;;;;5113781;28;20054;-73
2022/11/20 10:02:47;;;;;;;51.75;28.00;;;2.80;99.90;;;;;;5112371;28;20649;-73
2022/11/20 10:05:21;;;;;;;47.92;27.02;;;2.80;99.90;;;;;;5113486;28;20034;-71
2022/11/20 10:08:08;;;;;;;54.55;26.60;;;2.80;99.90;;;;;;5111850;28;20027;-72
2022/11/20 10:10:52;;;;;;;46.25;27.33;;;2.90;99.90;;;;;;5113025;28;20027;-72
2022/11/20 10:13:40;;;;;;;44.10;26.50;;;2.90;99.90;;;;;;5113473;28;20015;-71
2022/11/20 10:16:14;;;;;;;49.40;27.15;;;2.90;99.90;;;;;;5113557;28;20028;-72
2022/11/20 10:18:58;;;;;;;47.70;25.20;;;3.00;99.90;;;;;;5113026;28;20019;-73
2022/11/20 10:21:35;;;;;;;44.95;25.48;;;3.00;99.90;;;;;;5113271;28;20395;-73
2022/11/20 10:24:29;;;;;;;47.25;26.42;;;3.00;99.90;;;;;;5113469;28;20154;-73
2022/11/20 10:27:17;;;;;;;44.58;26.70;;;3.00;99.90;;;;;;5089756;28;20452;-72
2022/11/20 10:29:47;;;;;;;43.33;24.73;;;3.00;99.90;;;;;;5112440;28;20404;-73
2022/11/20 10:32:19;;;;;;;45.80;26.67;;;3.10;99.90;;;;;;5113056;28;20107;-73
2022/11/20 10:35:04;;;;;;;46.05;26.35;;;3.10;99.90;;;;;;5112692;28;20047;-72
2022/11/20 10:37:33;;;;;;;47.45;26.38;;;3.10;99.90;;;;;;5112936;28;20024;-72
2022/11/20 10:40:17;;;;;;;47.38;26.85;;;3.10;99.90;;;;;;5111166;28;20543;-72
2022/11/20 10:42:55;;;;;;;46.78;27.27;;;3.10;99.90;;;;;;5112086;28;20051;-72
2022/11/20 10:45:24;;;;;;;48.00;27.65;;;3.20;99.90;;;;;;5112919;28;20116;-72
2022/11/20 10:48:01;;;;;;;47.88;27.02;;;3.20;99.90;;;;;;5112405;28;20051;-72
2022/11/20 10:50:28;;;;;;;45.38;27.05;;;3.30;99.90;;;;;;5112998;28;20031;-72
2022/11/20 10:53:16;;;;;;;49.97;26.60;;;3.30;99.90;;;;;;5112348;28;20043;-72
2022/11/20 10:55:57;;;;;;;45.72;26.42;;;3.30;99.90;;;;;;5111101;28;20429;-72
2022/11/20 10:59:05;;;;;;;49.92;27.08;;;3.30;99.90;;;;;;5112794;28;20461;-72
2022/11/20 11:01:31;;;;;;;48.13;28.33;;;3.30;99.90;;;;;;5112638;28;20189;-72
2022/11/20 11:03:58;;;;;;;48.83;27.25;;;3.30;99.90;;;;;;5112319;28;20851;-72
2022/11/20 11:06:38;;;;;;;52.22;28.75;;;3.40;99.90;;;;;;5112608;28;20421;-72
2022/11/20 11:09:15;;;;;;;46.90;27.52;;;3.50;99.90;;;;;;5112460;28;20032;-72
2022/11/20 11:11:41;;;;;;;45.55;26.95;;;3.60;99.90;;;;;;5111961;28;20479;-72
2022/11/20 11:14:09;;;;;;;48.28;27.20;;;3.80;99.90;;;;;;5097730;28;20019;-71
2022/11/20 11:16:35;;;;;;;46.15;26.83;;;3.80;99.90;;;;;;5115415;28;20028;-72
2022/11/20 11:19:27;;;;;;;44.17;26.80;;;3.90;99.90;;;;;;5116087;28;20532;-72
2022/11/20 11:21:57;;;;;;;47.80;26.50;;;3.90;99.90;;;;;;5112145;27;20036;-72
2022/11/20 11:24:29;;;;;;;46.63;27.00;;;4.00;99.90;;;;;;5116578;28;20032;-71
2022/11/20 11:27:04;;;;;;;46.67;26.45;;;4.00;99.90;;;;;;5115839;28;20037;-72
2022/11/20 11:29:31;;;;;;;45.17;27.45;;;4.00;99.90;;;;;;5116544;28;20035;-72
2022/11/20 11:32:14;;;;;;;48.72;27.42;;;4.00;99.90;;;;;;5115723;28;20480;-72
2022/11/20 11:34:40;;;;;;;46.00;28.33;;;4.00;99.90;;;;;;5115793;28;20048;-73
2022/11/20 11:37:25;;;;;;;48.63;27.25;;;4.10;99.90;;;;;;5115363;28;20529;-72
2022/11/20 11:39:51;;;;;;;45.63;25.77;;;4.10;99.90;;;;;;5116166;28;20020;-72
2022/11/20 11:42:19;;;;;;;44.60;27.02;;;4.20;99.90;;;;;;5116641;28;20525;-72
2022/11/20 11:47:43;;;;;;;53.67;27.55;;;4.20;99.90;;;;;;5115649;28;20148;-72
2022/11/20 11:50:08;;;;;;;48.42;27.65;;;4.20;99.90;;;;;;5116444;28;20072;-73
2022/11/20 11:53:12;;;;;;;46.90;27.60;;;4.30;99.90;;;;;;5116060;28;20027;-73
2022/11/20 11:56:04;;;;;;;46.95;26.17;;;4.30;99.90;;;;;;5115632;28;20056;-73
2022/11/20 11:58:46;;;;;;;48.58;28.08;;;4.40;99.90;;;;;;5115222;28;20054;-73
2022/11/20 12:01:38;;;;;;;42.08;26.52;;;4.50;99.90;;;;;;5116102;28;20023;-73
2022/11/20 12:04:17;;;;;;;43.17;26.08;;;4.60;99.90;;;;;;5115491;27;20034;-73
2022/11/20 12:06:47;;;;;;;41.92;25.85;;;4.90;99.90;;;;;;5115333;28;20032;-74
2022/11/20 12:09:13;;;;;;;44.53;25.67;;;5.10;99.90;;;;;;5115637;28;20118;-73
2022/11/20 12:12:15;;;;;;;42.08;25.92;;;5.30;99.90;;;;;;5115624;28;20019;-72
2022/11/20 12:14:44;;;;;;;44.08;26.90;;;5.50;99.90;;;;;;5115660;28;20065;-72
2022/11/20 12:17:12;;;;;;;44.42;26.17;;;5.70;99.90;;;;;;5115245;28;20052;-72
2022/11/20 12:19:38;;;;;;;44.28;26.52;;;5.80;99.90;;;;;;5115065;28;20030;-73
2022/11/20 12:22:16;;;;;;;50.45;27.35;;;5.80;99.90;;;;;;5115074;27;20106;-72
2022/11/20 12:25:03;;;;;;;45.63;26.20;;;6.00;99.90;;;;;;5114330;28;20108;-72
2022/11/20 12:28:05;;;;;;;42.53;25.42;;;6.10;99.90;;;;;;5115603;28;20039;-73
2022/11/20 12:30:38;;;;;;;42.38;25.23;;;6.30;99.90;;;;;;5115359;28;20102;-73
2022/11/20 12:33:17;;;;;;;41.55;24.90;;;6.40;99.90;;;;;;5114801;28;20033;-73
2022/11/20 12:36:08;;;;;;;38.08;24.33;;;6.50;99.90;;;;;;5115271;28;20051;-72
2022/11/20 12:38:42;;;;;;;39.08;25.27;;;6.60;99.90;;;;;;5115173;28;20437;-71
2022/11/20 12:45:08;;;;;;;45.47;26.52;;;6.70;99.90;;;;;;5114670;28;20047;-73
2022/11/20 12:47:28;;;;;;;39.90;24.98;;;6.80;99.90;;;;;;5114175;28;20108;-72
2022/11/20 12:50:22;;;;;;;44.00;24.80;;;6.90;99.80;;;;;;5112394;28;20060;-73
2022/11/20 12:53:24;;;;;;;42.53;26.02;;;6.90;99.20;;;;;;5071827;28;20067;-74
2022/11/20 12:56:10;;;;;;;40.20;25.80;;;6.90;99.00;;;;;;5089435;28;20050;-73
2022/11/20 12:58:54;;;;;;;43.67;25.83;;;6.80;99.20;;;;;;5115007;28;20055;-72
2022/11/20 13:01:42;;;;;;;38.03;23.80;;;6.80;99.30;;;;;;5114590;28;20019;-72
2022/11/20 13:04:37;;;;;;;41.30;25.15;;;6.80;98.60;;;;;;5114162;28;20032;-72
2022/11/20 13:07:09;;;;;;;45.33;25.95;;;6.70;99.10;;;;;;5113833;28;20163;-73